createdAt,value
2018-08-28T00:00:29.498Z,64.56
2018-08-28T00:01:29.510Z,64.87
2018-08-28T00:02:29.474Z,64.76
2018-08-28T00:03:29.463Z,65.07
2018-08-28T00:04:29.473Z,64.76
2018-08-28T00:05:29.447Z,65.17
2018-08-28T00:06:29.442Z,63.65
2018-08-28T00:07:29.432Z,65.07
2018-08-28T00:08:29.432Z,64.36
2018-08-28T00:09:29.461Z,64.97
2018-08-28T00:10:29.385Z,64.56
2018-08-28T00:11:29.394Z,65.27
2018-08-28T00:12:29.388Z,64.49
2018-08-28T00:13:29.350Z,64.36
2018-08-28T00:14:29.338Z,64.49
2018-08-28T00:15:29.350Z,64.56
2018-08-28T00:16:29.338Z,64.76
2018-08-28T00:17:29.331Z,64.26
2018-08-28T00:18:29.294Z,64.39
2018-08-28T00:19:29.281Z,64.97
2018-08-28T00:20:29.292Z,65.10
2018-08-28T00:21:29.260Z,64.59
2018-08-28T00:22:29.250Z,64.90
2018-08-28T00:23:29.239Z,64.79
2018-08-28T00:24:29.226Z,65.10
2018-08-28T00:25:29.235Z,65.40
2018-08-28T00:26:29.202Z,64.59
2018-08-28T00:27:29.212Z,65.30
2018-08-28T00:28:29.180Z,65.40
2018-08-28T00:29:29.168Z,65.70
2018-08-28T00:30:29.157Z,65.61
2018-08-28T00:31:29.146Z,65.00
2018-08-28T00:32:29.157Z,66.31
2018-08-28T00:33:29.123Z,66.14
2018-08-28T00:34:29.114Z,66.82
2018-08-28T00:35:29.101Z,66.64
2018-08-28T00:36:29.092Z,66.41
2018-08-28T00:37:29.100Z,66.01
2018-08-28T00:38:29.069Z,66.85
2018-08-28T00:39:29.060Z,65.43
2018-08-28T00:40:29.047Z,64.73
2018-08-28T00:41:29.046Z,65.53
2018-08-28T00:42:29.021Z,66.35
2018-08-28T00:43:29.030Z,66.24
2018-08-28T00:44:28.999Z,65.43
2018-08-28T00:45:28.988Z,66.55
2018-08-28T00:46:28.976Z,66.85
2018-08-28T00:47:28.967Z,65.84
2018-08-28T00:48:29.196Z,66.85
2018-08-28T00:49:28.942Z,66.14
2018-08-28T00:50:28.931Z,66.35
2018-08-28T00:51:28.920Z,66.44
2018-08-28T00:52:29.003Z,66.95
2018-08-28T00:53:28.919Z,68.06
2018-08-28T00:54:28.886Z,66.55
2018-08-28T00:55:28.874Z,66.44
2018-08-28T00:56:28.886Z,66.55
2018-08-28T00:57:28.852Z,66.35
2018-08-28T00:58:28.841Z,66.75
2018-08-28T00:59:28.830Z,67.86
2018-08-28T01:00:28.817Z,66.44
2018-08-28T01:01:28.830Z,66.55
2018-08-28T01:02:28.800Z,66.35
2018-08-28T01:03:28.786Z,67.59
2018-08-28T01:04:28.795Z,66.75
2018-08-28T01:05:28.760Z,68.06
2018-08-28T01:06:28.750Z,67.66
2018-08-28T01:07:28.738Z,66.88
2018-08-28T01:08:28.729Z,68.87
2018-08-28T01:09:28.744Z,68.40
2018-08-28T01:10:28.704Z,68.40
2018-08-28T01:11:28.714Z,67.59
2018-08-28T01:12:28.684Z,67.59
2018-08-28T01:13:28.673Z,66.47
2018-08-28T01:14:28.723Z,66.38
2018-08-28T01:15:28.648Z,66.38
2018-08-28T01:16:28.666Z,67.89
2018-08-28T01:17:28.632Z,67.49
2018-08-28T01:18:28.614Z,66.78
2018-08-28T01:19:28.608Z,67.99
2018-08-28T01:20:28.594Z,67.39
2018-08-28T01:21:28.608Z,67.89
2018-08-28T01:22:28.570Z,68.30
2018-08-28T01:23:28.560Z,68.50
2018-08-28T01:24:28.547Z,67.29
2018-08-28T01:25:28.542Z,68.02
2018-08-28T01:26:28.549Z,68.23
2018-08-28T01:27:28.533Z,68.33
2018-08-28T01:28:28.500Z,68.94
2018-08-28T01:29:28.489Z,68.94
2018-08-28T01:30:28.483Z,69.14
2018-08-28T01:31:28.472Z,68.63
2018-08-28T01:32:28.488Z,68.43
2018-08-28T01:33:28.448Z,68.84
2018-08-28T01:34:28.455Z,69.65
2018-08-28T01:35:28.422Z,69.04
2018-08-28T01:36:28.413Z,70.15
2018-08-28T01:37:28.402Z,69.24
2018-08-28T01:38:28.415Z,69.37
2018-08-28T01:39:28.377Z,68.36
2018-08-28T01:40:28.365Z,68.84
2018-08-28T01:41:28.355Z,68.73
2018-08-28T01:42:28.352Z,68.97
2018-08-28T01:43:28.356Z,68.97
2018-08-28T01:44:28.325Z,68.97
2018-08-28T01:45:28.310Z,69.78
2018-08-28T01:46:28.299Z,69.37
2018-08-28T01:47:28.289Z,69.68
2018-08-28T01:48:28.300Z,70.59
2018-08-28T01:49:28.264Z,70.69
2018-08-28T01:50:28.256Z,71.00
2018-08-28T01:51:28.242Z,70.08
2018-08-28T01:52:28.231Z,69.78
2018-08-28T01:53:28.250Z,70.08
2018-08-28T01:54:28.209Z,70.79
2018-08-28T01:55:28.197Z,70.69
2018-08-28T01:56:28.186Z,70.18
2018-08-28T01:57:28.175Z,71.40
2018-08-28T01:58:28.198Z,71.70
2018-08-28T01:59:28.154Z,71.91
2018-08-28T02:00:28.144Z,71.80
2018-08-28T02:01:28.131Z,71.44
2018-08-28T02:02:28.119Z,71.91
2018-08-28T02:03:28.130Z,72.04
2018-08-28T02:04:28.099Z,71.64
2018-08-28T02:05:28.090Z,71.33
2018-08-28T02:06:28.079Z,70.62
2018-08-28T02:07:28.065Z,70.93
2018-08-28T02:08:28.075Z,72.31
2018-08-28T02:09:28.041Z,72.01
2018-08-28T02:10:28.063Z,71.09
2018-08-28T02:11:28.017Z,71.50
2018-08-28T02:12:28.007Z,72.34
2018-08-28T02:13:27.995Z,71.09
2018-08-28T02:14:27.984Z,71.84
2018-08-28T02:15:28.013Z,72.41
2018-08-28T02:16:27.961Z,71.44
2018-08-28T02:17:27.952Z,71.03
2018-08-28T02:18:27.938Z,70.93
2018-08-28T02:19:27.933Z,71.73
2018-08-28T02:20:27.938Z,71.03
2018-08-28T02:21:27.906Z,70.42
2018-08-28T02:22:27.894Z,70.52
2018-08-28T02:23:27.886Z,71.13
2018-08-28T02:24:27.872Z,70.62
2018-08-28T02:25:27.882Z,71.13
2018-08-28T02:26:27.858Z,71.23
2018-08-28T02:27:27.839Z,71.73
2018-08-28T02:28:27.833Z,71.94
2018-08-28T02:29:27.815Z,71.26
2018-08-28T02:30:27.828Z,71.67
2018-08-28T02:31:27.815Z,71.67
2018-08-28T02:32:27.782Z,71.97
2018-08-28T02:33:27.795Z,71.57
2018-08-28T02:34:27.761Z,71.88
2018-08-28T02:35:27.776Z,71.67
2018-08-28T02:36:27.758Z,70.86
2018-08-28T02:37:27.726Z,71.53
2018-08-28T02:38:27.714Z,71.67
2018-08-28T02:39:27.704Z,71.73
2018-08-28T02:40:27.736Z,71.23
2018-08-28T02:41:27.682Z,71.03
2018-08-28T02:42:27.670Z,71.06
2018-08-28T02:43:27.658Z,71.37
2018-08-28T02:44:27.678Z,71.77
2018-08-28T02:45:27.661Z,71.94
2018-08-28T02:46:27.628Z,72.38
2018-08-28T02:47:27.643Z,72.68
2018-08-28T02:48:27.603Z,73.29
2018-08-28T02:49:27.596Z,73.09
2018-08-28T02:50:27.581Z,73.09
2018-08-28T02:51:27.575Z,72.82
2018-08-28T02:52:27.581Z,72.31
2018-08-28T02:53:27.547Z,72.52
2018-08-28T02:54:27.536Z,72.21
2018-08-28T02:55:27.525Z,73.02
2018-08-28T02:56:27.519Z,72.78
2018-08-28T02:57:27.524Z,72.78
2018-08-28T02:58:27.489Z,72.28
2018-08-28T02:59:27.480Z,73.19
2018-08-28T03:00:27.469Z,72.72
2018-08-28T03:01:27.460Z,72.82
2018-08-28T03:02:27.473Z,72.61
2018-08-28T03:03:27.435Z,73.53
2018-08-28T03:04:27.423Z,73.02
2018-08-28T03:05:27.433Z,74.04
2018-08-28T03:06:27.400Z,74.48
2018-08-28T03:07:27.392Z,73.57
2018-08-28T03:08:27.404Z,72.96
2018-08-28T03:09:27.368Z,73.77
2018-08-28T03:10:27.359Z,73.77
2018-08-28T03:11:27.420Z,73.16
2018-08-28T03:12:27.355Z,73.26
2018-08-28T03:13:27.322Z,73.66
2018-08-28T03:14:27.317Z,74.17
2018-08-28T03:15:27.363Z,73.46
2018-08-28T03:16:27.292Z,73.87
2018-08-28T03:17:27.279Z,73.66
2018-08-28T03:18:27.286Z,74.27
2018-08-28T03:19:27.254Z,74.48
2018-08-28T03:20:27.243Z,73.77
2018-08-28T03:21:27.231Z,73.97
2018-08-28T03:22:27.221Z,74.17
2018-08-28T03:23:27.230Z,73.87
2018-08-28T03:24:27.198Z,73.66
2018-08-28T03:25:27.189Z,72.34
2018-08-28T03:26:27.214Z,75.39
2018-08-28T03:27:27.165Z,75.35
2018-08-28T03:28:27.153Z,74.04
2018-08-28T03:29:27.142Z,74.34
2018-08-28T03:30:27.131Z,75.39
2018-08-28T03:31:27.150Z,74.17
2018-08-28T03:32:27.114Z,75.39
2018-08-28T03:33:27.096Z,74.88
2018-08-28T03:34:27.085Z,74.38
2018-08-28T03:35:27.090Z,74.38
2018-08-28T03:36:27.084Z,74.58
2018-08-28T03:37:27.058Z,74.58
2018-08-28T03:38:27.040Z,75.39
2018-08-28T03:39:27.050Z,74.48
2018-08-28T03:40:27.020Z,74.17
2018-08-28T03:41:27.007Z,74.27
2018-08-28T03:42:26.997Z,73.87
2018-08-28T03:43:27.007Z,74.48
2018-08-28T03:44:26.975Z,74.68
2018-08-28T03:45:26.962Z,74.48
2018-08-28T03:46:26.950Z,74.58
2018-08-28T03:47:26.938Z,74.58
2018-08-28T03:48:26.948Z,75.29
2018-08-28T03:49:26.921Z,75.43
2018-08-28T03:50:26.905Z,75.32
2018-08-28T03:51:26.893Z,75.93
2018-08-28T03:52:26.913Z,76.64
2018-08-28T03:53:26.873Z,76.34
2018-08-28T03:54:26.863Z,76.14
2018-08-28T03:55:26.873Z,76.24
2018-08-28T03:56:26.840Z,76.58
2018-08-28T03:57:26.849Z,76.68
2018-08-28T03:58:26.816Z,76.17
2018-08-28T03:59:26.806Z,76.07
2018-08-28T04:00:26.793Z,76.58
2018-08-28T04:01:26.782Z,76.68
2018-08-28T04:02:26.812Z,76.82
2018-08-28T04:03:26.759Z,77.83
2018-08-28T04:04:26.749Z,77.33
2018-08-28T04:05:26.739Z,77.59
2018-08-28T04:06:26.735Z,76.72
2018-08-28T04:07:26.736Z,76.92
2018-08-28T04:08:26.709Z,76.92
2018-08-28T04:09:26.695Z,77.63
2018-08-28T04:10:26.681Z,77.53
2018-08-28T04:11:26.692Z,78.24
2018-08-28T04:12:26.659Z,77.53
2018-08-28T04:13:26.648Z,78.24
2018-08-28T04:14:26.660Z,78.24
2018-08-28T04:15:26.629Z,78.24
2018-08-28T04:16:26.634Z,77.43
2018-08-28T04:17:26.607Z,77.83
2018-08-28T04:18:26.591Z,77.63
2018-08-28T04:19:26.581Z,78.04
2018-08-28T04:20:26.764Z,78.44
2018-08-28T04:21:26.558Z,77.94
2018-08-28T04:22:26.603Z,78.44
2018-08-28T04:23:26.543Z,78.14
2018-08-28T04:24:26.525Z,78.04
2018-08-28T04:25:26.534Z,77.53
2018-08-28T04:26:26.522Z,77.53
2018-08-28T04:27:26.491Z,77.73
2018-08-28T04:28:26.480Z,77.83
2018-08-28T04:29:26.469Z,77.83
2018-08-28T04:30:26.553Z,77.49
2018-08-28T04:31:26.445Z,77.29
2018-08-28T04:32:26.437Z,77.39
2018-08-28T04:33:26.423Z,78.30
2018-08-28T04:34:26.412Z,77.70
2018-08-28T04:35:26.421Z,77.80
2018-08-28T04:36:26.393Z,77.59
2018-08-28T04:37:26.407Z,78.61
2018-08-28T04:38:26.367Z,77.59
2018-08-28T04:39:26.360Z,77.59
2018-08-28T04:40:26.349Z,76.78
2018-08-28T04:41:26.333Z,77.80
2018-08-28T04:42:26.348Z,77.49
2018-08-28T04:43:26.310Z,77.70
2018-08-28T04:44:26.301Z,77.86
2018-08-28T04:45:26.292Z,78.37
2018-08-28T04:46:26.299Z,77.15
2018-08-28T04:47:26.268Z,77.86
2018-08-28T04:48:26.263Z,78.17
2018-08-28T04:49:26.243Z,78.06
2018-08-28T04:50:26.248Z,77.36
2018-08-28T04:51:26.247Z,77.56
2018-08-28T04:52:26.212Z,76.44
2018-08-28T04:53:26.201Z,77.76
2018-08-28T04:54:26.189Z,77.76
2018-08-28T04:55:26.177Z,78.37
2018-08-28T04:56:26.189Z,78.06
2018-08-28T04:57:26.155Z,77.45
2018-08-28T04:58:26.155Z,77.25
2018-08-28T04:59:26.132Z,77.45
2018-08-28T05:00:26.125Z,78.33
2018-08-28T05:01:26.129Z,77.72
2018-08-28T05:02:26.099Z,77.42
2018-08-28T05:03:26.092Z,77.32
2018-08-28T05:04:26.075Z,77.56
2018-08-28T05:05:26.064Z,78.44
2018-08-28T05:06:26.079Z,76.31
2018-08-28T05:07:26.043Z,77.83
2018-08-28T05:08:26.036Z,77.62
2018-08-28T05:09:26.024Z,77.01
2018-08-28T05:10:26.035Z,76.31
2018-08-28T05:11:25.997Z,76.00
2018-08-28T05:12:25.986Z,77.12
2018-08-28T05:13:25.974Z,76.71
2018-08-28T05:14:25.963Z,75.49
2018-08-28T05:15:25.974Z,77.18
2018-08-28T05:16:25.941Z,75.25
2018-08-28T05:17:25.929Z,76.67
2018-08-28T05:18:25.922Z,77.38
2018-08-28T05:19:25.986Z,77.48
2018-08-28T05:20:25.924Z,77.18
2018-08-28T05:21:25.894Z,77.28
2018-08-28T05:22:25.876Z,76.47
2018-08-28T05:23:25.862Z,76.06
2018-08-28T05:24:25.862Z,75.46
2018-08-28T05:25:25.861Z,75.15
2018-08-28T05:26:25.834Z,75.73
2018-08-28T05:27:25.817Z,75.56
2018-08-28T05:28:25.807Z,75.42
2018-08-28T05:29:25.834Z,75.32
2018-08-28T05:30:25.845Z,75.01
2018-08-28T05:31:25.774Z,76.33
2018-08-28T05:32:25.764Z,76.13
2018-08-28T05:33:25.749Z,76.74
2018-08-28T05:34:25.742Z,76.33
2018-08-28T05:35:25.757Z,76.43
2018-08-28T05:36:25.716Z,76.54
2018-08-28T05:37:25.705Z,76.23
2018-08-28T05:38:25.740Z,75.93
2018-08-28T05:39:25.683Z,75.52
2018-08-28T05:40:25.704Z,75.22
2018-08-28T05:41:25.661Z,75.62
2018-08-28T05:42:25.650Z,75.22
2018-08-28T05:43:25.643Z,74.61
2018-08-28T05:44:25.629Z,74.30
2018-08-28T05:45:25.651Z,74.00
2018-08-28T05:46:25.604Z,74.37
2018-08-28T05:47:25.593Z,75.38
2018-08-28T05:48:25.582Z,74.27
2018-08-28T05:49:25.585Z,74.17
2018-08-28T05:50:25.580Z,75.18
2018-08-28T05:51:25.548Z,75.28
2018-08-28T05:52:25.538Z,74.37
2018-08-28T05:53:25.526Z,74.37
2018-08-28T05:54:25.536Z,73.83
2018-08-28T05:55:25.503Z,75.04
2018-08-28T05:56:25.492Z,75.08
2018-08-28T05:57:25.501Z,73.83
2018-08-28T05:58:25.490Z,73.63
2018-08-28T05:59:25.482Z,73.22
2018-08-28T06:00:25.446Z,73.63
2018-08-28T06:01:25.458Z,73.02
2018-08-28T06:02:25.424Z,73.02
2018-08-28T06:03:25.674Z,73.22
2018-08-28T06:04:25.403Z,73.19
2018-08-28T06:05:25.411Z,73.59
2018-08-28T06:06:25.425Z,73.83
2018-08-28T06:07:25.371Z,73.19
2018-08-28T06:08:25.358Z,72.99
2018-08-28T06:09:25.346Z,72.78
2018-08-28T06:10:25.334Z,72.78
2018-08-28T06:11:25.351Z,72.88
2018-08-28T06:12:25.313Z,72.58
2018-08-28T06:13:25.304Z,72.44
2018-08-28T06:14:25.290Z,72.65
2018-08-28T06:15:25.278Z,72.24
2018-08-28T06:16:25.288Z,72.24
2018-08-28T06:17:25.256Z,70.49
2018-08-28T06:18:25.267Z,71.09
2018-08-28T06:19:25.233Z,71.20
2018-08-28T06:20:25.244Z,71.20
2018-08-28T06:21:25.233Z,70.18
2018-08-28T06:22:25.198Z,69.38
2018-08-28T06:23:25.187Z,69.58
2018-08-28T06:24:25.182Z,68.63
2018-08-28T06:25:25.187Z,69.34
2018-08-28T06:26:25.180Z,70.15
2018-08-28T06:27:25.142Z,69.34
2018-08-28T06:28:25.130Z,70.36
2018-08-28T06:29:25.146Z,70.02
2018-08-28T06:30:25.130Z,70.12
2018-08-28T06:31:25.099Z,69.31
2018-08-28T06:32:25.085Z,69.01
2018-08-28T06:33:25.073Z,68.80
2018-08-28T06:34:25.065Z,68.30
2018-08-28T06:35:25.074Z,68.80
2018-08-28T06:36:25.070Z,68.30
2018-08-28T06:37:25.073Z,69.01
2018-08-28T06:38:25.018Z,68.27
2018-08-28T06:39:25.010Z,67.97
2018-08-28T06:40:25.018Z,67.56
2018-08-28T06:41:24.986Z,68.37
2018-08-28T06:42:25.005Z,68.37
2018-08-28T06:43:24.976Z,68.54
2018-08-28T06:44:24.950Z,68.54
2018-08-28T06:45:24.939Z,67.02
2018-08-28T06:46:24.928Z,66.93
2018-08-28T06:47:24.938Z,68.21
2018-08-28T06:48:24.906Z,66.29
2018-08-28T06:49:24.917Z,66.59
2018-08-28T06:50:24.884Z,67.19
2018-08-28T06:51:24.904Z,67.40
2018-08-28T06:52:24.863Z,67.30
2018-08-28T06:53:24.882Z,67.57
2018-08-28T06:54:24.839Z,66.29
2018-08-28T06:55:24.830Z,65.38
2018-08-28T06:56:24.995Z,66.59
2018-08-28T06:57:24.806Z,64.67
2018-08-28T06:58:24.792Z,64.47
2018-08-28T06:59:24.782Z,66.59
2018-08-28T07:00:24.778Z,65.68
2018-08-28T07:01:24.781Z,66.59
2018-08-28T07:02:24.818Z,66.39
2018-08-28T07:03:24.757Z,65.58
2018-08-28T07:04:24.730Z,66.29
2018-08-28T07:05:24.738Z,66.49
2018-08-28T07:06:24.726Z,66.79
2018-08-28T07:07:24.691Z,65.85
2018-08-28T07:08:24.681Z,65.35
2018-08-28T07:09:24.671Z,66.29
2018-08-28T07:10:24.718Z,65.25
2018-08-28T07:11:24.670Z,64.44
2018-08-28T07:12:24.635Z,65.15
2018-08-28T07:13:24.625Z,66.36
2018-08-28T07:14:24.616Z,65.35
2018-08-28T07:15:24.633Z,64.75
2018-08-28T07:16:24.590Z,65.25
2018-08-28T07:17:24.579Z,65.22
2018-08-28T07:18:24.567Z,65.55
2018-08-28T07:19:24.559Z,65.42
2018-08-28T07:20:24.567Z,64.95
2018-08-28T07:21:24.534Z,65.42
2018-08-28T07:22:24.525Z,65.72
2018-08-28T07:23:24.511Z,65.01
2018-08-28T07:24:24.525Z,65.22
2018-08-28T07:25:24.525Z,65.12
2018-08-28T07:26:24.482Z,64.92
2018-08-28T07:27:24.473Z,65.99
2018-08-28T07:28:24.457Z,65.79
2018-08-28T07:29:24.465Z,65.39
2018-08-28T07:30:24.433Z,64.55
2018-08-28T07:31:24.455Z,64.86
2018-08-28T07:32:24.435Z,63.54
2018-08-28T07:33:24.409Z,63.04
2018-08-28T07:34:24.388Z,62.94
2018-08-28T07:35:24.377Z,64.05
2018-08-28T07:36:24.370Z,64.05
2018-08-28T07:37:24.502Z,63.71
2018-08-28T07:38:24.350Z,63.51
2018-08-28T07:39:24.334Z,62.81
2018-08-28T07:40:24.321Z,63.31
2018-08-28T07:41:24.310Z,64.02
2018-08-28T07:42:24.320Z,62.54
2018-08-28T07:43:24.289Z,63.45
2018-08-28T07:44:24.278Z,63.65
2018-08-28T07:45:24.293Z,65.53
2018-08-28T07:46:24.256Z,63.95
2018-08-28T07:47:24.265Z,62.74
2018-08-28T07:48:24.249Z,62.91
2018-08-28T07:49:24.221Z,63.62
2018-08-28T07:50:24.215Z,62.94
2018-08-28T07:51:24.220Z,63.65
2018-08-28T07:52:24.189Z,63.31
2018-08-28T07:53:24.178Z,64.42
2018-08-28T07:54:24.166Z,63.62
2018-08-28T07:55:24.155Z,62.41
2018-08-28T07:56:24.182Z,63.31
2018-08-28T07:57:24.134Z,63.01
2018-08-28T07:58:24.121Z,62.94
2018-08-28T07:59:24.109Z,64.52
2018-08-28T08:00:24.098Z,63.82
2018-08-28T08:01:24.147Z,63.89
2018-08-28T08:02:24.076Z,63.99
2018-08-28T08:03:24.064Z,63.18
2018-08-28T08:04:24.054Z,62.45
2018-08-28T08:05:24.043Z,63.56
2018-08-28T08:06:24.063Z,61.65
2018-08-28T08:07:24.020Z,63.18
2018-08-28T08:08:24.009Z,62.65
2018-08-28T08:09:23.998Z,61.94
2018-08-28T08:10:24.047Z,62.24
2018-08-28T08:11:24.001Z,61.54
2018-08-28T08:12:23.985Z,61.21
2018-08-28T08:13:23.954Z,61.14
2018-08-28T08:14:23.940Z,61.34
2018-08-28T08:15:23.954Z,61.67
2018-08-28T08:16:23.919Z,61.85
2018-08-28T08:17:23.928Z,62.15
2018-08-28T08:18:23.918Z,61.74
2018-08-28T08:19:23.887Z,62.05
2018-08-28T08:20:23.875Z,62.52
2018-08-28T08:21:23.862Z,62.52
2018-08-28T08:22:23.894Z,62.19
2018-08-28T08:23:23.839Z,59.67
2018-08-28T08:24:23.835Z,62.12
2018-08-28T08:25:23.816Z,61.91
2018-08-28T08:26:23.805Z,61.85
2018-08-28T08:27:23.823Z,61.51
2018-08-28T08:28:23.838Z,62.32
2018-08-28T08:29:23.775Z,61.11
2018-08-28T08:30:23.760Z,62.72
2018-08-28T08:31:23.748Z,61.71
2018-08-28T08:32:23.768Z,61.38
2018-08-28T08:33:23.725Z,61.58
2018-08-28T08:34:23.715Z,59.98
2018-08-28T08:35:23.720Z,59.95
2018-08-28T08:36:23.696Z,60.05
2018-08-28T08:37:23.729Z,59.95
2018-08-28T08:38:23.680Z,60.48
2018-08-28T08:39:23.658Z,60.58
2018-08-28T08:40:23.647Z,60.78
2018-08-28T08:41:23.640Z,61.18
2018-08-28T08:42:23.650Z,60.65
2018-08-28T08:43:23.613Z,60.65
2018-08-28T08:44:23.602Z,59.62
2018-08-28T08:45:23.613Z,59.72
2018-08-28T08:46:23.580Z,59.22
2018-08-28T08:47:23.574Z,59.01
2018-08-28T08:48:23.583Z,58.01
2018-08-28T08:49:23.547Z,58.09
2018-08-28T08:50:23.536Z,58.56
2018-08-28T08:51:23.525Z,57.86
2018-08-28T08:52:23.535Z,57.53
2018-08-28T08:53:23.506Z,58.23
2018-08-28T08:54:23.493Z,57.63
2018-08-28T08:55:23.480Z,58.33
2018-08-28T08:56:23.471Z,56.73
2018-08-28T08:57:23.505Z,57.53
2018-08-28T08:58:23.450Z,57.33
2018-08-28T08:59:23.436Z,57.03
2018-08-28T09:00:23.425Z,56.80
2018-08-28T09:01:23.413Z,58.30
2018-08-28T09:02:23.423Z,57.10
2018-08-28T09:03:23.391Z,56.40
2018-08-28T09:04:23.381Z,56.60
2018-08-28T09:05:23.370Z,58.11
2018-08-28T09:06:23.355Z,56.07
2018-08-28T09:07:23.365Z,56.70
2018-08-28T09:08:23.339Z,55.30
2018-08-28T09:09:23.325Z,55.20
2018-08-28T09:10:23.311Z,55.50
2018-08-28T09:11:23.298Z,56.50
2018-08-28T09:12:23.310Z,55.40
2018-08-28T09:13:23.315Z,57.80
2018-08-28T09:14:23.267Z,55.10
2018-08-28T09:15:23.256Z,55.43
2018-08-28T09:16:23.246Z,55.63
2018-08-28T09:17:23.263Z,55.93
2018-08-28T09:18:23.217Z,56.60
2018-08-28T09:19:23.324Z,55.98
2018-08-28T09:20:23.195Z,55.50
2018-08-28T09:21:23.189Z,55.98
2018-08-28T09:22:23.198Z,55.12
2018-08-28T09:23:23.204Z,52.99
2018-08-28T09:24:23.151Z,52.84
2018-08-28T09:25:23.142Z,52.84
2018-08-28T09:26:23.128Z,53.02
2018-08-28T09:27:23.124Z,50.62
2018-08-28T09:28:23.131Z,51.52
2018-08-28T09:29:23.093Z,55.51
2018-08-28T09:30:23.084Z,51.70
2018-08-28T09:31:23.074Z,50.40
2018-08-28T09:32:23.100Z,49.00
2018-08-28T09:33:23.112Z,48.30
2018-08-28T09:34:23.058Z,48.30
2018-08-28T09:35:23.029Z,49.82
2018-08-28T09:36:23.020Z,49.22
2018-08-28T09:37:23.005Z,49.82
2018-08-28T09:38:23.023Z,50.79
2018-08-28T09:39:22.991Z,52.39
2018-08-28T09:40:22.997Z,50.27
2018-08-28T09:41:22.960Z,49.75
2018-08-28T09:42:22.949Z,49.33
2018-08-28T09:43:22.939Z,48.53
2018-08-28T09:44:22.929Z,49.10
2018-08-28T09:45:22.941Z,46.44
2018-08-28T09:46:22.943Z,47.58
2018-08-28T09:47:22.895Z,47.88
2018-08-28T09:48:22.976Z,48.40
2018-08-28T09:49:22.872Z,49.68
2018-08-28T09:50:22.897Z,47.58
2018-08-28T09:51:22.873Z,49.15
2018-08-28T09:52:22.964Z,47.86
2018-08-28T09:53:22.862Z,47.75
2018-08-28T09:54:22.816Z,46.48
2018-08-28T09:55:22.814Z,46.70
2018-08-28T09:56:22.795Z,47.13
2018-08-28T09:57:22.808Z,47.35
2018-08-28T09:58:22.817Z,46.85
2018-08-28T09:59:22.760Z,47.15
2018-08-28T10:00:22.753Z,47.35
2018-08-28T10:01:22.740Z,48.14
2018-08-28T10:02:22.731Z,48.75
2018-08-28T10:03:22.737Z,47.45
2018-08-28T10:04:22.708Z,49.15
2018-08-28T10:05:22.700Z,46.97
2018-08-28T10:06:22.684Z,46.57
2018-08-28T10:07:22.674Z,45.59
2018-08-28T10:08:22.688Z,46.77
2018-08-28T10:09:22.682Z,47.89
2018-08-28T10:10:22.640Z,49.37
2018-08-28T10:11:22.629Z,48.87
2018-08-28T10:12:22.619Z,48.90
2018-08-28T10:13:22.620Z,50.14
2018-08-28T10:14:22.627Z,51.17
2018-08-28T10:15:22.586Z,52.67
2018-08-28T10:16:22.574Z,51.87
2018-08-28T10:17:22.632Z,53.47
2018-08-28T10:18:22.553Z,51.34
2018-08-28T10:19:22.574Z,52.34
2018-08-28T10:20:22.530Z,50.24
2018-08-28T10:21:22.519Z,51.34
2018-08-28T10:22:22.509Z,51.42
2018-08-28T10:23:22.497Z,51.54
2018-08-28T10:24:22.515Z,49.96
2018-08-28T10:25:22.475Z,49.57
2018-08-28T10:26:22.464Z,49.96
2018-08-28T10:27:22.455Z,50.19
2018-08-28T10:28:22.443Z,51.59
2018-08-28T10:29:22.453Z,53.50
2018-08-28T10:30:22.508Z,53.30
2018-08-28T10:31:22.412Z,53.02
2018-08-28T10:32:22.397Z,52.92
2018-08-28T10:33:22.385Z,51.82
2018-08-28T10:34:22.373Z,50.69
2018-08-28T10:35:22.387Z,52.37
2018-08-28T10:36:22.350Z,50.57
2018-08-28T10:37:22.339Z,49.26
2018-08-28T10:38:22.329Z,51.84
2018-08-28T10:39:22.316Z,50.54
2018-08-28T10:40:22.367Z,50.92
2018-08-28T10:41:22.314Z,51.32
2018-08-28T10:42:22.283Z,50.49
2018-08-28T10:43:22.270Z,49.29
2018-08-28T10:44:22.287Z,52.49
2018-08-28T10:45:22.247Z,48.90
2018-08-28T10:46:22.322Z,48.87
2018-08-28T10:47:22.225Z,48.90
2018-08-28T10:48:22.244Z,49.32
2018-08-28T10:49:22.205Z,48.52
2018-08-28T10:50:22.190Z,51.29
2018-08-28T10:51:22.179Z,48.93
2018-08-28T10:52:22.168Z,47.08
2018-08-28T10:53:22.177Z,48.16
2018-08-28T10:54:22.149Z,46.44
2018-08-28T10:55:22.135Z,45.52
2018-08-28T10:56:22.123Z,45.37
2018-08-28T10:57:22.112Z,44.56
2018-08-28T10:58:22.124Z,43.76
2018-08-28T10:59:22.092Z,43.15
2018-08-28T11:00:22.084Z,43.13
2018-08-28T11:01:22.070Z,40.76
2018-08-28T11:02:22.058Z,42.29
2018-08-28T11:03:22.077Z,42.57
2018-08-28T11:04:22.067Z,42.25
2018-08-28T11:05:22.029Z,40.88
2018-08-28T11:06:22.013Z,42.86
2018-08-28T11:07:22.003Z,43.37
2018-08-28T11:08:22.012Z,42.83
2018-08-28T11:09:21.982Z,42.01
2018-08-28T11:10:22.009Z,41.99
2018-08-28T11:11:21.958Z,41.20
2018-08-28T11:12:21.973Z,41.50
2018-08-28T11:13:21.937Z,42.77
2018-08-28T11:14:21.956Z,38.71
2018-08-28T11:15:21.914Z,40.12
2018-08-28T11:16:21.905Z,42.11
2018-08-28T11:17:21.896Z,41.22
2018-08-28T11:18:21.881Z,40.12
2018-08-28T11:19:21.909Z,39.90
2018-08-28T11:20:21.861Z,38.02
2018-08-28T11:21:21.849Z,38.32
2018-08-28T11:22:21.863Z,38.92
2018-08-28T11:23:21.827Z,37.72
2018-08-28T11:24:21.855Z,41.09
2018-08-28T11:25:21.805Z,40.80
2018-08-28T11:26:21.795Z,39.31
2018-08-28T11:27:21.785Z,40.42
2018-08-28T11:28:21.773Z,41.69
2018-08-28T11:29:21.783Z,41.58
2018-08-28T11:30:21.750Z,38.65
2018-08-28T11:31:21.810Z,38.77
2018-08-28T11:32:21.728Z,39.67
2018-08-28T11:33:21.718Z,38.71
2018-08-28T11:34:21.709Z,41.42
2018-08-28T11:35:21.729Z,42.89
2018-08-28T11:36:21.685Z,41.30
2018-08-28T11:37:21.674Z,41.60
2018-08-28T11:38:21.738Z,40.30
2018-08-28T11:39:21.652Z,40.60
2018-08-28T11:40:21.669Z,41.22
2018-08-28T11:41:21.630Z,41.22
2018-08-28T11:42:21.623Z,41.09
2018-08-28T11:43:21.609Z,40.70
2018-08-28T11:44:21.597Z,40.32
2018-08-28T11:45:21.617Z,40.64
2018-08-28T11:46:21.575Z,39.88
2018-08-28T11:47:21.564Z,40.98
2018-08-28T11:48:21.553Z,42.18
2018-08-28T11:49:21.543Z,41.33
2018-08-28T11:50:21.554Z,40.44
2018-08-28T11:51:21.521Z,41.58
2018-08-28T11:52:21.531Z,41.39
2018-08-28T11:53:21.671Z,42.18
2018-08-28T11:54:21.502Z,43.75
2018-08-28T11:55:21.484Z,41.53
2018-08-28T11:56:21.467Z,43.05
2018-08-28T11:57:21.477Z,43.55
2018-08-28T11:58:21.446Z,42.93
2018-08-28T11:59:21.432Z,42.73
2018-08-28T12:00:21.422Z,41.83
2018-08-28T12:01:21.441Z,42.91
2018-08-28T12:02:21.400Z,41.30
2018-08-28T12:03:21.393Z,41.17
2018-08-28T12:04:21.378Z,40.00
2018-08-28T12:05:21.418Z,40.30
2018-08-28T12:06:21.387Z,41.00
2018-08-28T12:07:21.454Z,40.62
2018-08-28T12:08:21.335Z,41.63
2018-08-28T12:09:21.326Z,43.01
2018-08-28T12:10:21.319Z,43.01
2018-08-28T12:11:21.329Z,42.31
2018-08-28T12:12:21.292Z,41.61
2018-08-28T12:13:21.281Z,42.71
2018-08-28T12:14:21.271Z,41.12
2018-08-28T12:15:21.297Z,41.30
2018-08-28T12:16:21.247Z,40.60
2018-08-28T12:17:21.241Z,40.60
2018-08-28T12:18:21.226Z,40.88
2018-08-28T12:19:21.216Z,40.86
2018-08-28T12:20:21.273Z,38.57
2018-08-28T12:21:21.204Z,39.75
2018-08-28T12:22:21.187Z,38.54
2018-08-28T12:23:21.172Z,40.11
2018-08-28T12:24:21.161Z,39.13
2018-08-28T12:25:21.173Z,37.34
2018-08-28T12:26:21.166Z,37.74
2018-08-28T12:27:21.132Z,37.66
2018-08-28T12:28:21.119Z,38.56
2018-08-28T12:29:21.107Z,38.18
2018-08-28T12:30:21.117Z,39.09
2018-08-28T12:31:21.106Z,38.11
2018-08-28T12:32:21.075Z,39.80
2018-08-28T12:33:21.063Z,40.30
2018-08-28T12:34:21.052Z,40.90
2018-08-28T12:35:21.041Z,40.70
2018-08-28T12:36:21.052Z,39.80
2018-08-28T12:37:21.021Z,38.69
2018-08-28T12:38:21.007Z,38.79
2018-08-28T12:39:21.022Z,38.61
2018-08-28T12:40:20.989Z,39.50
2018-08-28T12:41:21.020Z,39.53
2018-08-28T12:42:20.965Z,39.11
2018-08-28T12:43:20.974Z,40.80
2018-08-28T12:44:20.945Z,40.00
2018-08-28T12:45:20.932Z,37.99
2018-08-28T12:46:20.921Z,37.70
2018-08-28T12:47:20.911Z,38.09
2018-08-28T12:48:20.951Z,38.59
2018-08-28T12:49:20.890Z,40.90
2018-08-28T12:50:20.880Z,40.00
2018-08-28T12:51:21.006Z,40.00
2018-08-28T12:52:20.856Z,40.42